Time;durP1;ratioP1;P1;durP2;ratioP2;P2;SDS_P1;SDS_P2;PMS_P1;PMS_P2;Temp;Humidity;BMP_temperature;BMP_pressure;BME280_temperature;BME280_humidity;BME280_pressure;Samples;Min_cycle;Max_cycle;Signal;HPM_P1;HPM_P2
2022/04/11 00:01:54;;;;;;;7.43;5.70;;;;;;;6.27;71.85;102031.78;5106004;28;20296;-77
2022/04/11 00:04:19;;;;;;;8.68;5.97;;;;;;;6.24;71.88;102023.13;5102481;28;20344;-77
2022/04/11 00:06:45;;;;;;;11.68;5.80;;;;;;;6.25;71.94;102030.09;5104015;28;20254;-78
2022/04/11 00:09:10;;;;;;;8.43;5.85;;;;;;;6.26;72.02;102017.06;5104103;28;20035;-78
2022/04/11 00:11:35;;;;;;;9.50;5.90;;;;;;;6.27;71.82;102015.34;5121400;28;20035;-78
2022/04/11 00:14:04;;;;;;;7.95;5.35;;;;;;;6.27;71.91;102007.53;5103531;28;20365;-77
2022/04/11 00:16:30;;;;;;;9.10;6.07;;;;;;;6.27;72.06;102005.78;5087530;28;20243;-77
2022/04/11 00:18:56;;;;;;;6.78;5.28;;;;;;;6.29;72.19;102004.06;5086680;28;20090;-77
2022/04/11 00:21:21;;;;;;;8.40;5.47;;;;;;;6.30;72.04;102010.13;5102192;28;20327;-78
2022/04/11 00:23:47;;;;;;;9.13;6.18;;;;;;;6.32;72.02;102008.38;5103633;28;20354;-77
2022/04/11 00:26:12;;;;;;;6.43;5.85;;;;;;;6.30;72.05;102003.19;5085937;28;20261;-77
2022/04/11 00:28:38;;;;;;;7.40;5.40;;;;;;;6.31;71.98;102004.91;5102963;28;20062;-78
2022/04/11 00:31:03;;;;;;;7.85;6.28;;;;;;;6.31;71.93;102002.31;5069783;28;20462;-78
2022/04/11 00:33:28;;;;;;;7.85;5.80;;;;;;;6.33;71.98;101999.69;5102535;28;20044;-77
2022/04/11 00:35:54;;;;;;;7.60;5.70;;;;;;;6.33;71.91;102004.88;5069076;28;20303;-78
2022/04/11 00:38:19;;;;;;;6.75;5.72;;;;;;;6.34;71.85;102004.88;5103080;28;20030;-78
2022/04/11 00:40:44;;;;;;;8.30;5.80;;;;;;;6.34;71.80;102002.28;5102788;28;20039;-77
2022/04/11 00:43:28;;;;;;;11.73;6.55;;;;;;;6.34;71.80;101999.69;5121568;28;20043;-77
2022/04/11 00:45:54;;;;;;;9.18;5.88;;;;;;;6.35;71.93;102005.78;5101518;28;20108;-77
2022/04/11 00:48:19;;;;;;;8.02;6.10;;;;;;;6.33;71.94;102000.56;5093561;28;20032;-78
2022/04/11 00:50:45;;;;;;;8.55;6.03;;;;;;;6.34;72.08;101998.81;5117662;28;20047;-78
2022/04/11 00:53:10;;;;;;;9.50;5.60;;;;;;;6.35;71.99;101992.75;5103313;28;20387;-77
2022/04/11 00:55:36;;;;;;;9.05;5.15;;;;;;;6.36;71.94;102004.03;5101948;28;20081;-77
2022/04/11 00:58:01;;;;;;;6.05;5.45;;;;;;;6.34;71.97;101988.41;5068264;28;20419;-77
2022/04/11 01:00:26;;;;;;;8.57;5.38;;;;;;;6.35;72.08;101990.16;5118957;28;20058;-77
2022/04/11 01:02:52;;;;;;;9.52;5.78;;;;;;;6.35;71.88;101990.16;5085770;28;20016;-77
2022/04/11 01:05:17;;;;;;;7.10;4.95;;;;;;;6.36;71.94;101994.47;5084980;28;20269;-77
2022/04/11 01:07:43;;;;;;;6.10;5.50;;;;;;;6.36;71.79;101994.47;5086000;28;20039;-77
2022/04/11 01:10:09;;;;;;;8.30;5.70;;;;;;;6.37;71.75;101990.13;5085518;28;20365;-77
2022/04/11 01:12:34;;;;;;;7.40;5.18;;;;;;;6.37;71.46;101987.53;5085355;28;20069;-77
2022/04/11 01:15:00;;;;;;;10.30;5.85;;;;;;;6.37;71.61;101982.31;5085858;28;20031;-77
2022/04/11 01:17:36;;;;;;;5.57;5.07;;;;;;;6.37;71.71;101990.13;5101953;28;20030;-78
2022/04/11 01:20:13;;;;;;;7.65;5.65;;;;;;;6.36;71.66;101981.47;5085314;28;20384;-77
2022/04/11 01:22:42;;;;;;;6.05;4.78;;;;;;;6.35;71.71;101982.34;5105094;28;20034;-77
2022/04/11 01:25:09;;;;;;;5.88;5.20;;;;;;;6.36;71.74;101983.22;5085717;28;20114;-77
2022/04/11 01:27:36;;;;;;;7.53;5.63;;;;;;;6.34;71.64;101980.59;5119736;28;20264;-77
2022/04/11 01:30:02;;;;;;;8.00;5.32;;;;;;;6.33;71.56;101979.75;5085456;28;20038;-77
2022/04/11 01:32:28;;;;;;;10.30;6.53;;;;;;;6.34;71.77;101970.19;5084732;28;20027;-77
2022/04/11 01:34:54;;;;;;;7.03;5.65;;;;;;;6.33;71.79;101960.66;5085471;28;20023;-77
2022/04/11 01:37:20;;;;;;;7.32;5.40;;;;;;;6.33;71.79;101974.56;5101862;28;20314;-77
2022/04/11 01:39:45;;;;;;;7.85;5.55;;;;;;;6.33;71.60;101971.94;5102272;28;20076;-77
2022/04/11 01:42:10;;;;;;;9.43;5.15;;;;;;;6.33;71.69;101971.06;5101652;28;20039;-77
2022/04/11 01:44:36;;;;;;;7.68;5.60;;;;;;;6.33;71.88;101968.47;5083500;28;20023;-77
2022/04/11 01:47:01;;;;;;;5.97;5.38;;;;;;;6.31;71.40;101965.00;5101774;28;20038;-77
2022/04/11 01:49:27;;;;;;;6.75;4.88;;;;;;;6.31;71.40;101965.00;5101412;28;20080;-77
2022/04/11 01:51:52;;;;;;;7.60;5.85;;;;;;;6.29;71.51;101969.34;5085110;28;20023;-77
2022/04/11 01:54:18;;;;;;;5.97;5.38;;;;;;;6.28;71.41;101968.50;5100564;28;20348;-77
2022/04/11 01:56:43;;;;;;;7.65;5.68;;;;;;;6.28;71.34;101959.84;5108793;28;20043;-77
2022/04/11 01:59:09;;;;;;;10.10;5.75;;;;;;;6.27;71.53;101960.69;5085187;28;20031;-77
2022/04/11 02:01:34;;;;;;;8.40;5.90;;;;;;;6.26;71.47;101951.19;5134121;27;20055;-77
2022/04/11 02:03:59;;;;;;;7.43;5.80;;;;;;;6.22;71.66;101958.13;5101738;28;20036;-77
2022/04/11 02:06:25;;;;;;;6.80;5.55;;;;;;;6.21;71.79;101960.75;5084178;28;20246;-77
2022/04/11 02:08:50;;;;;;;7.18;5.38;;;;;;;6.19;71.84;101955.53;5101693;28;20054;-77
2022/04/11 02:11:15;;;;;;;8.70;5.97;;;;;;;6.18;71.76;101964.19;5100153;28;20069;-79
2022/04/11 02:13:41;;;;;;;6.65;5.60;;;;;;;6.17;71.64;101967.69;5083517;28;20057;-79
2022/04/11 02:16:06;;;;;;;9.35;6.00;;;;;;;6.15;71.68;101969.44;5100524;28;20046;-79
2022/04/11 02:18:32;;;;;;;7.43;5.85;;;;;;;6.14;71.49;101962.50;5100046;28;20027;-79
2022/04/11 02:20:57;;;;;;;7.32;6.05;;;;;;;6.11;71.42;101965.09;5083495;28;20092;-78
2022/04/11 02:23:23;;;;;;;7.32;5.80;;;;;;;6.10;71.51;101966.84;5119580;28;20047;-77
2022/04/11 02:25:48;;;;;;;6.85;5.70;;;;;;;6.08;71.57;101959.94;5101712;28;20031;-77
2022/04/11 02:28:13;;;;;;;6.57;5.97;;;;;;;6.07;71.42;101960.78;5101439;28;20060;-77
2022/04/11 02:30:39;;;;;;;6.43;5.82;;;;;;;6.05;71.49;101968.59;5085063;28;20039;-77
2022/04/11 02:33:05;;;;;;;9.00;6.28;;;;;;;6.05;71.52;101966.00;5119281;28;20042;-77
2022/04/11 02:35:30;;;;;;;7.35;5.90;;;;;;;6.03;71.58;101965.13;5100574;28;20020;-77
2022/04/11 02:37:56;;;;;;;8.23;6.13;;;;;;;6.02;71.58;101959.94;5119392;28;20020;-77
2022/04/11 02:40:22;;;;;;;9.52;6.47;;;;;;;6.01;71.54;101960.81;5118976;28;20027;-77
2022/04/11 02:42:47;;;;;;;6.95;6.25;;;;;;;6.00;71.54;101964.28;5100459;28;20099;-77
2022/04/11 02:45:14;;;;;;;6.78;6.18;;;;;;;5.98;71.70;101961.69;5101463;28;20039;-77
2022/04/11 02:47:40;;;;;;;9.60;5.32;;;;;;;5.97;71.53;101959.97;5113151;28;20035;-78
2022/04/11 02:50:06;;;;;;;7.10;6.00;;;;;;;5.98;71.53;101958.22;5084564;28;20039;-77
2022/04/11 02:52:32;;;;;;;7.28;6.18;;;;;;;5.94;71.49;101958.19;5117540;28;20036;-77
2022/04/11 02:54:58;;;;;;;8.05;6.13;;;;;;;5.93;71.49;101963.38;5084363;28;20366;-77
2022/04/11 02:57:23;;;;;;;9.27;6.13;;;;;;;5.94;71.54;101959.94;5104058;28;20216;-77
2022/04/11 02:59:49;;;;;;;6.97;6.28;;;;;;;5.92;71.77;101951.28;5088304;28;20043;-77
2022/04/11 03:02:15;;;;;;;7.88;5.53;;;;;;;5.91;71.57;101952.13;5122274;28;20108;-77
2022/04/11 03:04:40;;;;;;;9.30;6.45;;;;;;;5.88;71.45;101950.44;5088139;28;20028;-77
2022/04/11 03:07:06;;;;;;;8.30;6.35;;;;;;;5.87;71.49;101953.88;5087641;28;20023;-77
2022/04/11 03:09:32;;;;;;;10.05;6.72;;;;;;;5.85;71.50;101950.44;5109632;28;20024;-77
2022/04/11 03:11:57;;;;;;;9.43;6.10;;;;;;;5.85;71.50;101949.56;5104828;28;20092;-77
2022/04/11 03:14:23;;;;;;;7.82;6.15;;;;;;;5.81;71.33;101946.13;5122909;28;20351;-77
2022/04/11 03:16:49;;;;;;;10.68;5.85;;;;;;;5.80;71.51;101933.13;5105006;28;20224;-77
2022/04/11 03:19:14;;;;;;;12.00;6.38;;;;;;;5.79;71.47;101934.00;5121783;28;20036;-77
2022/04/11 03:21:40;;;;;;;6.53;5.82;;;;;;;5.77;71.48;101937.47;5105075;28;20370;-77
2022/04/11 03:24:05;;;;;;;8.48;6.43;;;;;;;5.75;71.55;101935.75;5084161;28;20054;-77
2022/04/11 03:26:31;;;;;;;7.95;7.00;;;;;;;5.74;71.45;101937.47;5104284;28;20027;-77
2022/04/11 03:28:56;;;;;;;8.95;6.28;;;;;;;5.72;71.51;101926.19;5104732;28;20023;-77
2022/04/11 03:31:22;;;;;;;6.57;5.93;;;;;;;5.71;71.50;101931.41;5087244;28;20220;-77
2022/04/11 03:33:47;;;;;;;8.10;7.03;;;;;;;5.70;71.63;101933.16;5104361;28;20041;-77
2022/04/11 03:36:13;;;;;;;8.63;6.63;;;;;;;5.69;71.51;101925.34;5090395;28;20043;-77
2022/04/11 03:38:38;;;;;;;7.55;6.60;;;;;;;5.68;71.56;101928.84;5104766;28;20082;-77
2022/04/11 03:41:03;;;;;;;11.30;6.90;;;;;;;5.66;71.74;101926.25;5122501;28;20035;-77
2022/04/11 03:43:29;;;;;;;10.40;6.95;;;;;;;5.66;71.84;101920.19;5088857;28;20024;-77
2022/04/11 03:45:54;;;;;;;7.75;6.95;;;;;;;5.65;71.70;101918.44;5103678;28;20031;-77
2022/04/11 03:48:20;;;;;;;10.57;7.53;;;;;;;5.64;71.67;101924.50;5086280;28;20040;-77
2022/04/11 03:50:46;;;;;;;8.02;7.22;;;;;;;5.63;71.75;101914.97;5103038;28;20077;-77
2022/04/11 03:53:12;;;;;;;7.40;6.35;;;;;;;5.62;71.86;101921.91;5103644;28;20092;-77
2022/04/11 03:55:37;;;;;;;7.45;6.60;;;;;;;5.61;71.95;101920.19;5103982;28;20393;-77
2022/04/11 03:58:03;;;;;;;9.40;7.53;;;;;;;5.60;71.91;101920.19;5104154;28;20050;-77
2022/04/11 04:00:28;;;;;;;7.75;6.93;;;;;;;5.58;71.80;101926.25;5121124;28;20052;-77
2022/04/11 04:02:56;;;;;;;7.75;6.90;;;;;;;5.56;71.76;101912.38;5103449;28;20039;-77
2022/04/11 04:05:21;;;;;;;9.35;7.18;;;;;;;5.56;71.94;101914.97;5113290;28;20394;-77
2022/04/11 04:07:46;;;;;;;11.52;7.32;;;;;;;5.55;71.78;101917.59;5086267;28;20054;-77
2022/04/11 04:10:12;;;;;;;8.30;7.18;;;;;;;5.54;72.07;101923.66;5103054;28;20247;-77
2022/04/11 04:12:37;;;;;;;10.43;7.03;;;;;;;5.52;71.98;101922.81;5103343;28;20038;-77
2022/04/11 04:15:03;;;;;;;7.15;6.47;;;;;;;5.52;71.91;101928.00;5073633;28;20296;-77
2022/04/11 04:17:29;;;;;;;8.20;7.10;;;;;;;5.51;71.96;101921.94;5121105;28;20069;-77
2022/04/11 04:19:55;;;;;;;7.45;6.65;;;;;;;5.49;71.93;101918.47;5092076;28;20035;-77
2022/04/11 04:22:21;;;;;;;8.38;7.57;;;;;;;5.49;71.99;101913.25;5086023;28;20023;-77
2022/04/11 04:24:46;;;;;;;8.57;6.85;;;;;;;5.48;72.02;101911.56;5102270;28;20319;-77
2022/04/11 04:27:12;;;;;;;11.70;7.47;;;;;;;5.46;72.06;101915.03;5086008;28;20059;-77
2022/04/11 04:29:37;;;;;;;10.77;7.43;;;;;;;5.45;72.13;101913.28;5086074;28;20039;-77
2022/04/11 04:32:03;;;;;;;10.32;7.78;;;;;;;5.45;72.16;101908.09;5103393;28;20055;-77
2022/04/11 04:34:32;;;;;;;8.15;7.28;;;;;;;5.41;72.31;101903.78;5102521;28;20043;-77
2022/04/11 04:36:58;;;;;;;9.15;7.20;;;;;;;5.41;72.44;101901.19;5120429;28;20220;-77
2022/04/11 04:39:24;;;;;;;8.27;7.35;;;;;;;5.39;72.41;101899.44;5102458;28;20027;-77
2022/04/11 04:41:49;;;;;;;8.13;7.05;;;;;;;5.37;72.50;101903.78;5085984;28;20035;-77
2022/04/11 04:44:15;;;;;;;9.25;7.47;;;;;;;5.37;72.47;101892.53;5084430;28;20121;-77
2022/04/11 04:46:40;;;;;;;8.27;7.38;;;;;;;5.37;72.32;101900.31;5102569;28;20219;-77
2022/04/11 04:49:05;;;;;;;8.48;7.60;;;;;;;5.36;72.45;101898.59;5086358;28;20049;-77
2022/04/11 04:51:31;;;;;;;9.68;7.22;;;;;;;5.35;72.35;101899.47;5118957;28;20031;-77
2022/04/11 04:53:56;;;;;;;13.45;7.93;;;;;;;5.34;72.43;101901.19;5100328;28;20343;-77
2022/04/11 04:56:22;;;;;;;7.95;7.00;;;;;;;5.32;72.41;101902.91;5118371;27;20051;-77
2022/04/11 04:58:48;;;;;;;9.73;7.50;;;;;;;5.31;72.34;101906.41;5101027;28;20040;-77
2022/04/11 05:01:14;;;;;;;9.63;7.30;;;;;;;5.30;72.31;101909.00;5100018;28;20115;-77
2022/04/11 05:03:40;;;;;;;11.57;7.38;;;;;;;5.28;72.28;101903.81;5101072;28;20023;-77
2022/04/11 05:06:06;;;;;;;8.30;7.45;;;;;;;5.27;72.28;101899.47;5099703;27;20085;-77
2022/04/11 05:08:32;;;;;;;8.25;7.35;;;;;;;5.26;72.32;101899.50;5132751;27;20035;-77
2022/04/11 05:10:58;;;;;;;9.63;7.22;;;;;;;5.23;72.49;101895.16;5100929;28;20395;-77
2022/04/11 05:13:23;;;;;;;8.02;7.22;;;;;;;5.22;72.29;101900.34;5099021;28;20023;-77
2022/04/11 05:15:49;;;;;;;9.90;8.05;;;;;;;5.21;72.52;101898.63;5093975;28;20046;-77
2022/04/11 05:18:14;;;;;;;11.05;7.90;;;;;;;5.19;72.19;101894.28;5084260;28;20295;-77
2022/04/11 05:20:41;;;;;;;13.20;8.27;;;;;;;5.18;72.42;101894.28;5082091;28;20054;-78
2022/04/11 05:23:07;;;;;;;9.77;7.25;;;;;;;5.18;72.35;101900.38;5077651;28;20028;-77
2022/04/11 05:25:32;;;;;;;7.82;7.13;;;;;;;5.19;72.45;101906.41;5113518;28;20212;-77
2022/04/11 05:27:58;;;;;;;11.25;7.55;;;;;;;5.19;72.45;101903.81;5116223;28;20562;-77
2022/04/11 05:30:24;;;;;;;11.75;8.48;;;;;;;5.17;72.54;101909.00;5115935;28;20067;-77
2022/04/11 05:32:50;;;;;;;9.10;7.70;;;;;;;5.18;72.69;101908.16;5098407;28;20389;-77
2022/04/11 05:35:15;;;;;;;11.20;8.07;;;;;;;5.17;72.80;101903.81;5082366;28;20039;-77
2022/04/11 05:37:41;;;;;;;9.85;8.20;;;;;;;5.18;72.77;101905.56;5081149;28;20331;-77
2022/04/11 05:40:09;;;;;;;8.48;7.60;;;;;;;5.17;72.75;101905.56;5096607;28;20043;-77
2022/04/11 05:42:37;;;;;;;9.25;7.55;;;;;;;5.18;72.96;101899.47;5097472;28;20039;-77
2022/04/11 05:45:03;;;;;;;8.95;8.05;;;;;;;5.17;73.03;101905.56;5081051;28;20287;-77
2022/04/11 05:47:29;;;;;;;9.38;8.43;;;;;;;5.16;73.01;101903.81;5096981;28;20038;-77
2022/04/11 05:49:54;;;;;;;10.07;8.48;;;;;;;5.16;73.24;101902.06;5079925;28;20047;-77
2022/04/11 05:52:21;;;;;;;9.40;8.50;;;;;;;5.18;73.48;101905.56;5094758;27;20115;-77
2022/04/11 05:54:46;;;;;;;9.02;7.60;;;;;;;5.19;73.41;101902.06;5101307;27;20039;-77
2022/04/11 05:57:12;;;;;;;8.82;7.93;;;;;;;5.21;73.47;101906.41;5099527;28;20015;-77
2022/04/11 05:59:37;;;;;;;10.60;8.05;;;;;;;5.22;73.47;101906.41;5099537;28;20330;-77
2022/04/11 06:02:03;;;;;;;8.60;7.47;;;;;;;5.24;73.51;101898.59;5099083;28;20048;-77
2022/04/11 06:04:28;;;;;;;9.95;7.80;;;;;;;5.26;73.58;101910.72;5081673;28;20039;-77
2022/04/11 06:06:54;;;;;;;9.18;8.27;;;;;;;5.26;73.60;101897.75;5116394;28;20030;-77
2022/04/11 06:09:19;;;;;;;8.90;8.02;;;;;;;5.29;73.66;101907.25;5079431;28;20072;-77
2022/04/11 06:11:44;;;;;;;8.25;7.45;;;;;;;5.30;73.65;101906.41;5084720;28;20019;-77
2022/04/11 06:14:10;;;;;;;8.40;7.60;;;;;;;5.31;73.72;101906.41;5082278;28;20370;-77
2022/04/11 06:16:36;;;;;;;8.20;7.50;;;;;;;5.32;73.88;101915.91;5117342;28;20447;-77
2022/04/11 06:19:01;;;;;;;9.40;8.38;;;;;;;5.32;74.07;101913.31;5082040;28;20044;-77
2022/04/11 06:21:27;;;;;;;9.05;8.07;;;;;;;5.35;74.13;101907.25;5081598;28;20278;-77
2022/04/11 06:23:52;;;;;;;8.60;7.53;;;;;;;5.36;74.09;101912.44;5082380;28;20080;-77
2022/04/11 06:26:18;;;;;;;10.38;9.38;;;;;;;5.37;74.19;101911.56;5081845;28;20036;-77
2022/04/11 06:28:43;;;;;;;10.45;8.65;;;;;;;5.38;74.37;101905.53;5082662;28;20040;-77
2022/04/11 06:31:10;;;;;;;6.78;6.28;;;;;;;5.41;74.47;101902.03;5081854;28;20111;-77
2022/04/11 06:33:37;;;;;;;8.07;7.03;;;;;;;5.43;74.59;101902.91;5088648;28;20023;-77
2022/04/11 06:36:03;;;;;;;8.88;7.30;;;;;;;5.45;74.38;101908.09;5098961;28;20354;-77
2022/04/11 06:38:29;;;;;;;9.23;6.50;;;;;;;5.47;74.39;101901.16;5106662;28;20027;-78
2022/04/11 06:40:57;;;;;;;8.32;7.53;;;;;;;5.48;74.53;101906.34;5112850;28;20031;-78
2022/04/11 06:43:23;;;;;;;10.63;8.30;;;;;;;5.50;74.63;101901.16;5078041;28;20043;-77
2022/04/11 06:45:49;;;;;;;7.70;6.72;;;;;;;5.52;74.72;101904.63;5075495;28;20028;-77
2022/04/11 06:48:15;;;;;;;8.00;7.13;;;;;;;5.53;74.76;101903.72;5090783;28;20035;-77
2022/04/11 06:50:40;;;;;;;9.00;8.13;;;;;;;5.55;75.14;101899.41;5080441;28;20317;-77
2022/04/11 06:53:06;;;;;;;8.57;7.78;;;;;;;5.56;75.01;101899.38;5112148;28;20037;-77
2022/04/11 06:55:32;;;;;;;9.45;8.40;;;;;;;5.59;75.04;101901.13;5087462;28;20200;-78
2022/04/11 06:58:01;;;;;;;9.55;8.60;;;;;;;5.59;75.08;101893.34;5062698;28;20354;-77
2022/04/11 07:00:27;;;;;;;9.82;8.65;;;;;;;5.61;74.93;101893.34;5080360;28;20133;-77
2022/04/11 07:02:52;;;;;;;9.63;8.70;;;;;;;5.63;74.83;101895.03;5118643;28;20211;-77
2022/04/11 07:05:18;;;;;;;12.52;8.55;;;;;;;5.66;75.17;101889.00;5064085;28;20039;-78
2022/04/11 07:07:43;;;;;;;13.63;8.75;;;;;;;5.66;75.14;101887.25;5083038;28;20031;-78
2022/04/11 07:10:09;;;;;;;8.90;8.05;;;;;;;5.68;75.11;101889.84;5070115;28;20051;-77
2022/04/11 07:12:38;;;;;;;11.63;8.80;;;;;;;5.69;75.08;101882.03;5083522;28;20043;-77
2022/04/11 07:15:08;;;;;;;9.48;8.50;;;;;;;5.73;74.98;101882.88;5092631;28;20062;-77
2022/04/11 07:17:33;;;;;;;9.15;6.82;;;;;;;5.76;74.94;101886.31;5109760;28;20028;-77
2022/04/11 07:19:59;;;;;;;10.77;9.05;;;;;;;5.79;74.52;101880.28;5100690;28;20354;-77
2022/04/11 07:22:24;;;;;;;10.15;8.50;;;;;;;5.84;74.66;101883.72;5096378;28;20046;-77
2022/04/11 07:24:50;;;;;;;13.80;8.55;;;;;;;5.87;74.45;101881.09;5079052;28;20035;-77
2022/04/11 07:27:15;;;;;;;8.85;7.30;;;;;;;5.93;74.20;101882.78;5096484;28;20043;-78
2022/04/11 07:29:41;;;;;;;8.93;8.02;;;;;;;5.96;74.26;101886.28;5092147;28;20162;-77
2022/04/11 07:32:07;;;;;;;8.63;7.70;;;;;;;6.00;74.09;101884.53;5088158;28;20392;-77
2022/04/11 07:34:32;;;;;;;11.10;7.63;;;;;;;6.05;74.06;101874.97;5113327;28;20056;-77
2022/04/11 07:36:57;;;;;;;8.57;7.47;;;;;;;6.10;73.77;101880.16;5098655;28;20046;-77
2022/04/11 07:39:26;;;;;;;8.13;7.32;;;;;;;6.16;73.54;101885.31;5092492;28;20385;-77
2022/04/11 07:41:55;;;;;;;12.93;7.90;;;;;;;6.20;73.58;101873.16;5100239;28;20410;-78
2022/04/11 07:44:21;;;;;;;8.10;7.20;;;;;;;6.25;73.34;101874.84;5113256;28;20028;-78
2022/04/11 07:46:47;;;;;;;8.60;6.60;;;;;;;6.31;73.27;101868.75;5102213;27;20042;-78
2022/04/11 07:49:12;;;;;;;7.05;6.50;;;;;;;6.39;72.88;101866.13;5109633;27;20396;-78
2022/04/11 07:51:38;;;;;;;7.25;6.50;;;;;;;6.45;72.69;101864.31;5066001;28;20035;-77
2022/04/11 07:54:03;;;;;;;8.80;7.25;;;;;;;6.52;72.46;101865.13;5097089;28;20103;-78
2022/04/11 07:56:29;;;;;;;7.47;6.78;;;;;;;6.56;72.39;101850.38;5096358;28;20358;-77
2022/04/11 07:58:58;;;;;;;8.40;7.15;;;;;;;6.60;72.08;101857.25;5121768;28;20039;-78
2022/04/11 08:01:24;;;;;;;7.60;6.95;;;;;;;6.64;71.87;101843.34;5102985;28;20047;-78
2022/04/11 08:03:49;;;;;;;6.68;6.10;;;;;;;6.69;71.62;101851.97;5101533;28;20032;-78
2022/04/11 08:06:15;;;;;;;10.80;7.43;;;;;;;6.69;71.48;101855.47;5089648;28;20255;-78
2022/04/11 08:08:44;;;;;;;9.07;6.45;;;;;;;6.74;71.79;101845.00;5102983;28;20074;-77
2022/04/11 08:11:13;;;;;;;;;;;;;;;6.80;71.78;101841.47;5102525;28;20347;-78
2022/04/11 08:13:39;;;;;;;9.63;6.80;;;;;;;6.87;71.46;101838.78;5090576;28;20248;-78
2022/04/11 08:16:05;;;;;;;7.10;6.43;;;;;;;6.95;71.18;101837.88;5104258;28;20300;-78
2022/04/11 08:18:31;;;;;;;6.35;5.80;;;;;;;7.00;70.35;101841.28;5116786;28;20051;-78
2022/04/11 08:20:56;;;;;;;10.02;6.47;;;;;;;7.05;70.39;101840.38;5083760;28;20027;-77
2022/04/11 08:23:22;;;;;;;10.25;6.55;;;;;;;7.13;70.21;101850.72;5072296;28;20050;-78
2022/04/11 08:25:48;;;;;;;7.03;5.85;;;;;;;7.18;70.09;101842.84;5096463;28;20043;-77
2022/04/11 08:28:13;;;;;;;5.93;5.43;;;;;;;7.25;69.84;101836.69;5083187;28;20043;-78
2022/04/11 08:30:38;;;;;;;6.75;6.07;;;;;;;7.31;69.51;101839.22;5098787;28;20110;-78
2022/04/11 08:33:04;;;;;;;7.45;5.53;;;;;;;7.35;69.44;101830.50;5127658;27;20093;-78
2022/04/11 08:35:29;;;;;;;10.25;5.63;;;;;;;7.41;69.20;101827.81;5110777;28;20330;-77
2022/04/11 08:37:55;;;;;;;9.35;5.55;;;;;;;7.47;68.88;101832.97;5109474;27;20031;-78
2022/04/11 08:40:21;;;;;;;12.00;5.50;;;;;;;7.54;68.51;101838.13;5097572;28;20093;-77
2022/04/11 08:42:48;;;;;;;8.20;5.00;;;;;;;7.59;68.51;101839.78;5120055;27;20341;-78
2022/04/11 08:45:15;;;;;;;8.70;5.28;;;;;;;7.65;68.45;101834.47;5122901;27;20352;-77
2022/04/11 08:47:41;;;;;;;7.43;5.28;;;;;;;7.71;68.57;101833.53;5126978;27;20060;-78
2022/04/11 08:50:07;;;;;;;5.20;4.75;;;;;;;7.76;68.46;101833.50;5102728;28;20043;-77
2022/04/11 08:52:35;;;;;;;6.13;4.35;;;;;;;7.83;68.11;101830.78;5109278;28;20023;-77
2022/04/11 08:55:01;;;;;;;5.55;4.60;;;;;;;7.91;67.55;101827.19;5116132;28;20035;-78
2022/04/11 08:57:27;;;;;;;11.05;4.30;;;;;;;7.96;65.87;101822.78;5117331;28;20312;-77
2022/04/11 08:59:52;;;;;;;4.68;4.28;;;;;;;8.03;66.93;101821.81;5101469;28;20277;-78
2022/04/11 09:02:18;;;;;;;3.75;3.45;;;;;;;8.14;66.53;101814.69;5118963;28;20061;-78
2022/04/11 09:04:56;;;;;;;9.38;4.55;;;;;;;8.22;65.41;101809.34;5106459;28;20332;-78
2022/04/11 09:07:22;;;;;;;6.03;4.13;;;;;;;8.27;65.62;101813.59;5093500;28;20019;-78
2022/04/11 09:09:47;;;;;;;5.63;3.30;;;;;;;8.34;64.72;101821.38;5095096;28;20081;-78
2022/04/11 09:12:14;;;;;;;3.33;2.88;;;;;;;8.40;64.56;101810.81;5081949;28;20027;-78
2022/04/11 09:14:41;;;;;;;8.07;3.50;;;;;;;8.46;64.46;101802.94;5118922;28;20035;-78
2022/04/11 09:17:09;;;;;;;6.97;2.97;;;;;;;8.51;64.40;101801.06;5078265;28;20028;-78
2022/04/11 09:19:34;;;;;;;9.32;3.40;;;;;;;8.55;64.18;101794.94;5111055;28;20050;-79
2022/04/11 09:22:00;;;;;;;3.90;2.67;;;;;;;8.62;64.51;101795.69;5077660;28;20031;-78
2022/04/11 09:24:26;;;;;;;6.28;3.25;;;;;;;8.68;64.02;101786.88;5075781;28;20046;-78
2022/04/11 09:26:55;;;;;;;4.53;2.60;;;;;;;8.71;64.35;101797.28;5067600;28;20031;-78
2022/04/11 09:29:22;;;;;;;5.38;3.42;;;;;;;8.78;63.47;101791.06;5095474;28;20050;-77
2022/04/11 09:31:48;;;;;;;5.00;3.60;;;;;;;8.84;64.46;101793.53;5099129;28;20381;-78
2022/04/11 09:34:20;;;;;;;5.10;2.90;;;;;;;8.93;63.50;101789.91;5115362;28;20028;-77
2022/04/11 09:36:51;;;;;;;5.78;3.20;;;;;;;8.99;63.67;101792.44;5095192;28;20099;-78
2022/04/11 09:39:21;;;;;;;4.78;3.60;;;;;;;9.08;63.46;101791.38;5116561;28;20251;-77
2022/04/11 09:41:47;;;;;;;5.82;3.58;;;;;;;9.13;63.48;101786.91;5117704;28;20031;-78
2022/04/11 09:44:20;;;;;;;4.43;3.35;;;;;;;9.16;63.65;101790.34;5083724;28;20058;-77
2022/04/11 09:46:46;;;;;;;4.80;3.45;;;;;;;9.21;63.46;101796.34;5096293;28;20341;-78
2022/04/11 09:49:12;;;;;;;6.07;3.28;;;;;;;9.33;61.97;101792.63;5081816;28;20315;-77
2022/04/11 09:51:39;;;;;;;9.02;3.47;;;;;;;9.45;60.75;101799.34;5071856;28;20035;-78
2022/04/11 09:54:27;;;;;;;4.82;3.30;;;;;;;9.52;61.01;101787.88;5118382;28;20049;-77
2022/04/11 09:56:54;;;;;;;7.18;3.90;;;;;;;9.57;61.67;101785.16;5092084;28;20067;-78
2022/04/11 09:59:22;;;;;;;3.67;3.38;;;;;;;9.58;60.44;101784.25;5091995;28;20036;-78
2022/04/11 10:01:50;;;;;;;5.97;3.55;;;;;;;9.65;60.88;101771.91;5112694;27;20036;-78
2022/04/11 10:04:16;;;;;;;7.53;3.50;;;;;;;9.67;60.75;101777.97;5112900;28;20207;-78
2022/04/11 10:06:42;;;;;;;4.45;3.47;;;;;;;9.77;60.41;101785.59;5087772;28;20346;-78
2022/04/11 10:09:07;;;;;;;4.93;3.20;;;;;;;9.82;59.56;101782.00;5094697;28;20043;-78
2022/04/11 10:11:34;;;;;;;6.38;3.25;;;;;;;9.84;59.90;101785.44;5074928;28;20036;-78
2022/04/11 10:14:00;;;;;;;8.30;3.42;;;;;;;9.90;59.96;101785.31;5084440;28;20484;-78
2022/04/11 10:16:26;;;;;;;5.40;3.63;;;;;;;9.92;60.20;101792.22;5065519;28;20038;-78
2022/04/11 10:18:59;;;;;;;7.72;3.88;;;;;;;9.96;59.19;101777.31;5083170;28;20238;-78
2022/04/11 10:21:26;;;;;;;4.47;4.00;;;;;;;10.00;58.63;101771.09;5115444;28;20121;-78
2022/04/11 10:24:06;;;;;;;7.40;3.92;;;;;;;10.07;59.27;101766.59;5099292;28;20334;-78
2022/04/11 10:26:47;;;;;;;7.75;4.30;;;;;;;10.08;59.78;101761.34;5117410;27;20488;-78
2022/04/11 10:29:34;;;;;;;8.02;4.43;;;;;;;10.14;59.88;101760.31;5106378;28;20231;-78
2022/04/11 10:32:07;;;;;;;7.90;4.20;;;;;;;10.23;57.70;101756.63;5084645;28;20032;-78
2022/04/11 10:35:02;;;;;;;5.93;4.72;;;;;;;10.30;56.34;101751.19;5114949;28;20404;-78
2022/04/11 10:37:31;;;;;;;5.30;4.45;;;;;;;10.35;56.74;101748.47;5114116;28;20042;-78
2022/04/11 10:40:15;;;;;;;4.80;4.32;;;;;;;10.38;56.88;101741.41;5108347;28;20039;-78
2022/04/11 10:43:01;;;;;;;4.88;4.13;;;;;;;10.39;57.70;101742.28;5112136;28;20040;-78
2022/04/11 10:45:39;;;;;;;8.02;4.07;;;;;;;10.43;57.71;101740.44;5089105;28;20158;-78
2022/04/11 10:48:06;;;;;;;4.50;4.10;;;;;;;10.45;58.19;101736.88;5113748;28;20035;-78
2022/04/11 10:50:41;;;;;;;6.00;4.65;;;;;;;10.48;56.99;101728.97;5117633;28;20304;-78
2022/04/11 10:53:22;;;;;;;9.52;5.10;;;;;;;10.54;56.73;101726.16;5118522;28;20424;-78
2022/04/11 10:56:08;;;;;;;4.93;4.18;;;;;;;10.60;56.00;101729.53;5093826;28;20031;-78
2022/04/11 10:58:51;;;;;;;5.30;4.10;;;;;;;10.64;56.18;101718.94;5087451;28;20658;-78
2022/04/11 11:01:56;;;;;;;5.05;4.00;;;;;;;10.77;55.03;101711.59;5086618;28;20078;-78
2022/04/11 11:04:22;;;;;;;6.80;3.80;;;;;;;10.82;54.50;101714.06;5011940;28;20096;-78
2022/04/11 11:07:24;;;;;;;6.95;4.40;;;;;;;10.88;55.45;101714.78;5077003;28;20036;-78
2022/04/11 11:09:55;;;;;;;9.98;5.20;;;;;;;10.92;54.71;101702.44;5107394;28;20024;-78
2022/04/11 11:12:21;;;;;;;5.18;4.50;;;;;;;10.94;54.93;101696.25;5118906;28;20034;-78
2022/04/11 11:14:46;;;;;;;4.75;4.07;;;;;;;11.00;54.99;101687.34;5101752;28;20031;-78
2022/04/11 11:17:12;;;;;;;12.52;4.10;;;;;;;11.03;54.64;101686.41;5116313;28;20058;-78
2022/04/11 11:20:04;;;;;;;6.10;4.22;;;;;;;11.06;52.64;101686.31;5082867;28;20024;-78
2022/04/11 11:23:17;;;;;;;4.05;3.72;;;;;;;11.06;53.87;101668.84;5109793;28;20071;-78
2022/04/11 11:25:42;;;;;;;4.00;3.70;;;;;;;11.05;53.42;101659.25;5113919;28;20047;-78
2022/04/11 11:28:11;;;;;;;7.57;4.10;;;;;;;11.04;52.85;101661.91;5095296;28;20082;-78
2022/04/11 11:30:38;;;;;;;4.63;4.22;;;;;;;11.04;52.84;101660.16;5108221;28;20031;-78
2022/04/11 11:33:03;;;;;;;8.38;4.45;;;;;;;11.03;54.15;101650.56;5086200;28;20243;-78